createdAt,value
2018-03-29T00:02:12.273Z,25.30
2018-03-29T00:04:40.461Z,25.80
2018-03-29T00:07:09.390Z,24.30
2018-03-29T00:09:38.328Z,22.93
2018-03-29T00:12:06.534Z,22.80
2018-03-29T00:14:34.725Z,24.40
2018-03-29T00:17:03.665Z,23.60
2018-03-29T00:19:31.854Z,25.40
2018-03-29T00:22:00.050Z,22.90
2018-03-29T00:24:28.230Z,23.47
2018-03-29T00:26:56.411Z,24.37
2018-03-29T00:29:25.380Z,26.47
2018-03-29T00:31:53.570Z,23.50
2018-03-29T00:34:21.767Z,23.93
2018-03-29T00:36:50.712Z,24.87
2018-03-29T00:39:18.926Z,25.47
2018-03-29T00:41:47.879Z,22.20
2018-03-29T00:44:16.045Z,24.53
2018-03-29T00:46:45.857Z,23.20
2018-03-29T00:49:14.032Z,22.90
2018-03-29T00:51:42.218Z,24.07
2018-03-29T00:54:10.382Z,24.80
2018-03-29T00:56:38.549Z,23.07
2018-03-29T00:59:06.724Z,23.50
2018-03-29T01:01:34.897Z,25.53
2018-03-29T01:04:03.056Z,23.70
2018-03-29T01:06:31.223Z,24.70
2018-03-29T01:08:59.403Z,25.57
2018-03-29T01:11:27.604Z,23.10
2018-03-29T01:13:55.779Z,24.63
2018-03-29T01:16:23.954Z,22.40
2018-03-29T01:18:52.158Z,23.40
2018-03-29T01:21:20.334Z,24.27
2018-03-29T01:23:48.543Z,21.67
2018-03-29T01:26:17.487Z,24.53
2018-03-29T01:28:45.667Z,24.07
2018-03-29T01:31:13.834Z,21.97
2018-03-29T01:33:41.998Z,24.30
2018-03-29T01:36:10.226Z,22.97
2018-03-29T01:38:39.178Z,25.83
2018-03-29T01:41:07.355Z,22.97
2018-03-29T01:43:35.523Z,23.47
2018-03-29T01:46:03.723Z,24.00
2018-03-29T01:48:31.890Z,24.20
2018-03-29T01:51:00.067Z,23.50
2018-03-29T01:53:28.283Z,24.37
2018-03-29T01:55:56.475Z,23.40
2018-03-29T01:58:24.741Z,24.00
2018-03-29T02:00:53.721Z,22.93
2018-03-29T02:03:22.657Z,24.67
2018-03-29T02:05:50.870Z,22.60
2018-03-29T02:08:19.835Z,23.33
2018-03-29T02:10:48.003Z,23.23
2018-03-29T02:13:16.214Z,23.90
2018-03-29T02:15:45.168Z,24.37
2018-03-29T02:18:13.343Z,23.37
2018-03-29T02:20:42.297Z,22.27
2018-03-29T02:23:10.471Z,24.50
2018-03-29T02:25:38.626Z,24.10
2018-03-29T02:28:07.585Z,24.13
2018-03-29T02:30:35.766Z,23.20
2018-03-29T02:33:03.975Z,22.43
2018-03-29T02:35:32.932Z,24.40
2018-03-29T02:38:01.102Z,23.60
2018-03-29T02:40:29.275Z,24.73
2018-03-29T02:42:57.506Z,24.57
2018-03-29T02:45:25.682Z,23.03
2018-03-29T02:47:53.951Z,24.13
2018-03-29T02:50:22.129Z,24.63
2018-03-29T02:52:50.338Z,22.70
2018-03-29T02:55:18.557Z,22.83
2018-03-29T02:57:47.533Z,24.73
2018-03-29T03:00:15.712Z,22.43
2018-03-29T03:02:43.914Z,24.47
2018-03-29T03:05:12.848Z,24.40
2018-03-29T03:07:41.023Z,24.90
2018-03-29T03:10:09.231Z,24.27
2018-03-29T03:12:37.414Z,25.53
2018-03-29T03:15:06.378Z,23.40
2018-03-29T03:17:34.558Z,22.63
2018-03-29T03:20:02.743Z,24.80
2018-03-29T03:22:30.922Z,23.27
2018-03-29T03:24:59.108Z,25.10
2018-03-29T03:27:28.072Z,23.37
2018-03-29T03:29:56.245Z,23.40
2018-03-29T03:32:25.189Z,22.60
2018-03-29T03:34:53.382Z,24.70
2018-03-29T03:37:21.586Z,23.93
2018-03-29T03:39:50.545Z,25.67
2018-03-29T03:42:18.731Z,23.47
2018-03-29T03:44:46.937Z,24.77
2018-03-29T03:47:15.123Z,24.10
2018-03-29T03:49:43.301Z,24.17
2018-03-29T03:52:11.480Z,25.27
2018-03-29T03:54:39.662Z,24.40
2018-03-29T03:57:08.632Z,22.80
2018-03-29T03:59:36.830Z,24.30
2018-03-29T04:02:05.779Z,24.53
2018-03-29T04:04:33.974Z,23.77
2018-03-29T04:07:02.187Z,24.37
2018-03-29T04:09:31.119Z,22.40
2018-03-29T04:11:59.297Z,24.67
2018-03-29T04:14:27.478Z,23.97
2018-03-29T04:16:55.677Z,25.30
2018-03-29T04:19:23.853Z,25.80
2018-03-29T04:21:52.044Z,24.47
2018-03-29T04:24:21.011Z,23.83
2018-03-29T04:26:49.189Z,24.27
2018-03-29T04:29:17.391Z,24.60
2018-03-29T04:31:46.384Z,26.00
2018-03-29T04:34:15.313Z,24.13
2018-03-29T04:36:43.508Z,23.40
2018-03-29T04:39:11.675Z,23.20
2018-03-29T04:41:39.859Z,24.37
2018-03-29T04:44:08.070Z,23.90
2018-03-29T04:46:37.010Z,24.83
2018-03-29T04:49:05.178Z,23.73
2018-03-29T04:51:33.370Z,23.33
2018-03-29T04:54:01.572Z,24.60
2018-03-29T04:56:29.773Z,24.20
2018-03-29T04:58:58.750Z,22.87
2018-03-29T05:01:27.691Z,23.33
2018-03-29T06:25:53.578Z,21.80
2018-03-29T06:28:21.754Z,22.00
2018-03-29T06:30:50.694Z,24.23
2018-03-29T06:33:19.652Z,23.83
2018-03-29T06:35:47.838Z,23.07
2018-03-29T06:38:16.014Z,22.37
2018-03-29T06:40:44.189Z,22.50
2018-03-29T06:43:12.364Z,23.27
2018-03-29T06:45:40.548Z,21.07
2018-03-29T06:48:08.733Z,22.80
2018-03-29T06:50:36.936Z,21.23
2018-03-29T06:53:05.105Z,22.33
2018-03-29T06:55:34.049Z,23.17
2018-03-29T06:58:02.226Z,22.57
2018-03-29T07:00:30.391Z,22.73
2018-03-29T07:02:58.570Z,23.10
2018-03-29T07:05:26.747Z,20.60
2018-03-29T07:07:54.931Z,22.80
2018-03-29T07:10:23.103Z,23.67
2018-03-29T07:12:51.277Z,23.80
2018-03-29T07:15:19.447Z,22.23
2018-03-29T07:17:47.622Z,22.50
2018-03-29T07:20:15.822Z,20.90
2018-03-29T07:22:44.795Z,21.50
2018-03-29T07:25:12.974Z,20.83
2018-03-29T07:27:41.164Z,22.00
2018-03-29T07:30:10.110Z,21.90
2018-03-29T07:32:38.300Z,23.10
2018-03-29T07:35:06.472Z,21.53
2018-03-29T07:37:34.696Z,21.30
2018-03-29T07:40:03.673Z,22.17
2018-03-29T07:42:31.883Z,22.30
2018-03-29T07:45:00.094Z,21.17
2018-03-29T07:47:28.293Z,21.10
2018-03-29T07:49:56.471Z,20.80
2018-03-29T07:52:24.641Z,20.87
2018-03-29T07:54:52.835Z,23.13
2018-03-29T07:57:21.770Z,23.97
2018-03-29T07:59:49.955Z,22.37
2018-03-29T08:02:18.165Z,21.47
2018-03-29T08:04:46.343Z,21.27
2018-03-29T08:07:15.286Z,23.00
2018-03-29T08:09:43.512Z,21.37
2018-03-29T08:12:12.459Z,20.10
2018-03-29T08:14:40.645Z,22.03
2018-03-29T08:17:08.913Z,23.00
2018-03-29T08:19:37.075Z,22.83
2018-03-29T08:22:05.257Z,24.23
2018-03-29T08:24:33.445Z,31.70
2018-03-29T08:27:01.626Z,28.17
2018-03-29T08:29:29.811Z,24.10
2018-03-29T08:31:57.991Z,28.03
2018-03-29T08:34:26.163Z,26.17
2018-03-29T08:36:54.335Z,21.13
2018-03-29T08:39:22.534Z,22.37
2018-03-29T08:41:51.476Z,23.97
2018-03-29T08:44:19.665Z,23.43
2018-03-29T08:46:47.846Z,21.57
2018-03-29T08:49:16.031Z,23.60
2018-03-29T08:51:44.215Z,23.10
2018-03-29T08:54:12.390Z,22.17
2018-03-29T08:56:40.597Z,23.60
2018-03-29T08:59:08.767Z,23.60
2018-03-29T09:01:36.939Z,24.13
2018-03-29T09:04:05.147Z,25.40
2018-03-29T09:06:33.335Z,23.60
2018-03-29T09:09:01.507Z,23.40
2018-03-29T09:11:29.711Z,26.70
2018-03-29T09:13:57.897Z,25.37
2018-03-29T09:16:26.882Z,26.43
2018-03-29T09:18:55.055Z,24.87
2018-03-29T09:21:23.232Z,25.53
2018-03-29T09:23:51.404Z,27.33
2018-03-29T09:26:20.355Z,26.23
2018-03-29T09:28:48.540Z,25.53
2018-03-29T09:31:16.719Z,27.63
2018-03-29T09:33:44.890Z,27.17
2018-03-29T09:36:13.080Z,25.83
2018-03-29T09:38:41.306Z,25.47
2018-03-29T09:41:09.500Z,27.03
2018-03-29T09:43:37.694Z,27.77
2018-03-29T09:46:05.879Z,27.83
2018-03-29T09:48:34.073Z,26.67
2018-03-29T09:51:03.045Z,26.77
2018-03-29T09:53:31.233Z,25.47
2018-03-29T09:55:59.418Z,24.93
2018-03-29T09:58:28.374Z,24.63
2018-03-29T10:01:02.126Z,25.57
2018-03-29T10:03:30.336Z,24.97
2018-03-29T10:06:04.320Z,24.87
2018-03-29T10:08:33.289Z,25.57
2018-03-29T10:11:01.485Z,26.67
2018-03-29T10:13:30.431Z,24.70
2018-03-29T10:15:58.608Z,26.27
2018-03-29T10:18:26.815Z,29.63
2018-03-29T10:20:55.753Z,26.83
2018-03-29T10:23:23.930Z,27.93
2018-03-29T10:25:52.115Z,28.07
2018-03-29T10:28:20.291Z,27.10
2018-03-29T10:30:48.474Z,26.60
2018-03-29T10:33:16.674Z,26.60
2018-03-29T10:35:44.887Z,27.30
2018-03-29T10:38:13.804Z,27.60
2018-03-29T10:40:42.014Z,28.43
2018-03-29T10:43:10.240Z,27.03
2018-03-29T10:45:38.412Z,27.07
2018-03-29T10:48:06.614Z,27.53
2018-03-29T10:50:34.820Z,29.00
2018-03-29T10:53:03.762Z,27.23
2018-03-29T10:55:31.941Z,27.00
2018-03-29T10:58:00.171Z,27.47
2018-03-29T11:00:28.309Z,26.93
2018-03-29T11:02:56.499Z,27.80
2018-03-29T11:05:24.685Z,30.30
2018-03-29T11:07:52.855Z,27.20
2018-03-29T11:10:21.038Z,27.50
2018-03-29T11:12:50.036Z,26.47
2018-03-29T11:15:18.986Z,27.77
2018-03-29T11:17:47.158Z,28.87
2018-03-29T11:20:16.118Z,27.17
2018-03-29T11:22:44.331Z,28.40
2018-03-29T11:25:12.515Z,27.97
2018-03-29T11:27:40.699Z,26.87
2018-03-29T11:30:08.891Z,28.50
2018-03-29T11:32:37.839Z,29.20
2018-03-29T11:35:06.020Z,27.93
2018-03-29T11:37:34.207Z,28.30
2018-03-29T11:40:02.384Z,29.30
2018-03-29T11:42:30.553Z,30.23
2018-03-29T11:44:58.728Z,27.23
2018-03-29T11:47:26.907Z,28.63
2018-03-29T11:49:55.089Z,25.77
2018-03-29T11:52:23.278Z,27.37
2018-03-29T11:54:52.222Z,26.10
2018-03-29T11:57:20.406Z,28.10
2018-03-29T11:59:48.614Z,26.77
2018-03-29T12:02:16.796Z,27.53
2018-03-29T12:04:45.738Z,28.70
2018-03-29T12:07:13.949Z,27.10
2018-03-29T12:09:42.135Z,27.63
2018-03-29T12:12:11.121Z,27.23
2018-03-29T12:14:39.304Z,27.47
2018-03-29T12:17:07.479Z,26.60
2018-03-29T12:19:35.667Z,28.80
2018-03-29T12:22:04.624Z,28.13
2018-03-29T12:24:32.798Z,27.57
2018-03-29T12:27:00.991Z,25.90
2018-03-29T12:29:29.195Z,27.47
2018-03-29T12:31:57.399Z,27.10
2018-03-29T12:34:25.591Z,28.23
2018-03-29T12:36:53.770Z,27.63
2018-03-29T12:39:21.977Z,26.30
2018-03-29T12:41:50.916Z,27.83
2018-03-29T12:44:19.093Z,27.07
2018-03-29T12:46:47.265Z,27.70
2018-03-29T12:49:15.456Z,27.03
2018-03-29T12:51:43.634Z,34.57
2018-03-29T12:54:11.815Z,42.87
2018-03-29T12:56:57.884Z,32.30
2018-03-29T12:59:26.066Z,26.07
2018-03-29T13:01:54.281Z,24.40
2018-03-29T13:04:23.236Z,26.73
2018-03-29T13:06:51.425Z,26.33
2018-03-29T13:09:19.628Z,25.13
2018-03-29T13:11:48.566Z,26.77
2018-03-29T13:14:16.739Z,25.13
2018-03-29T13:16:44.927Z,26.07
2018-03-29T13:19:13.151Z,25.70
2018-03-29T13:21:42.095Z,25.50
2018-03-29T13:24:10.288Z,25.07
2018-03-29T13:26:38.529Z,25.80
2018-03-29T13:29:06.712Z,22.50
2018-03-29T13:31:34.897Z,23.77
2018-03-29T13:34:03.171Z,23.80
2018-03-29T13:36:31.386Z,21.83
2018-03-29T13:38:59.548Z,22.57
2018-03-29T13:41:28.520Z,23.00
2018-03-29T13:43:56.713Z,24.70
2018-03-29T13:46:24.916Z,24.77
2018-03-29T13:48:53.899Z,27.13
2018-03-29T13:51:22.869Z,23.23
2018-03-29T13:53:51.157Z,25.70
2018-03-29T13:56:19.353Z,24.57
2018-03-29T13:58:48.298Z,37.77
2018-03-29T14:01:16.489Z,32.10
2018-03-29T14:03:44.667Z,28.40
2018-03-29T14:06:12.894Z,27.20
2018-03-29T14:08:41.066Z,27.43
2018-03-29T14:11:09.238Z,27.67
2018-03-29T14:13:37.418Z,25.13
2018-03-29T14:16:05.629Z,26.10
2018-03-29T14:18:33.826Z,26.33
2018-03-29T14:21:02.007Z,24.00
2018-03-29T14:23:30.203Z,25.57
2018-03-29T14:25:59.180Z,25.17
2018-03-29T14:28:28.131Z,28.63
2018-03-29T14:30:56.344Z,23.63
2018-03-29T14:33:24.522Z,24.30
2018-03-29T14:35:53.661Z,26.20
2018-03-29T14:38:21.886Z,27.80
2018-03-29T14:40:50.842Z,26.00
2018-03-29T14:43:19.032Z,28.47
2018-03-29T14:45:47.210Z,27.63
2018-03-29T14:48:15.426Z,29.30
2018-03-29T14:50:44.386Z,29.27
2018-03-29T14:53:12.570Z,31.97
2018-03-29T14:55:40.746Z,32.13
2018-03-29T14:58:08.925Z,34.50
2018-03-29T15:00:37.100Z,30.70
2018-03-29T15:03:05.276Z,33.90
2018-03-29T15:05:34.267Z,30.77
2018-03-29T15:08:02.469Z,30.53
2018-03-29T15:10:31.398Z,30.10
2018-03-29T15:12:59.611Z,32.63
2018-03-29T15:15:28.555Z,34.30
2018-03-29T15:17:56.744Z,32.80
2018-03-29T15:20:24.931Z,31.60
2018-03-29T15:22:53.106Z,33.73
2018-03-29T15:25:21.299Z,32.53
2018-03-29T15:27:49.476Z,31.63
2018-03-29T15:30:17.684Z,31.40
2018-03-29T15:32:45.871Z,33.33
2018-03-29T15:35:14.054Z,33.23
2018-03-29T15:37:42.230Z,33.73
2018-03-29T15:40:10.407Z,34.77
2018-03-29T15:42:38.590Z,35.23
2018-03-29T15:45:06.794Z,35.20
2018-03-29T15:47:34.974Z,36.87
2018-03-29T15:50:03.150Z,35.23
2018-03-29T15:52:31.354Z,34.47
2018-03-29T15:54:59.533Z,37.07
2018-03-29T15:57:27.699Z,37.10
2018-03-29T15:59:56.651Z,37.20
2018-03-29T16:02:24.847Z,35.37
2018-03-29T16:04:53.795Z,39.57
2018-03-29T16:07:21.963Z,37.23
2018-03-29T16:09:50.147Z,37.60
2018-03-29T16:12:18.331Z,38.03
2018-03-29T16:14:46.542Z,37.17
2018-03-29T16:17:15.478Z,38.13
2018-03-29T16:19:43.684Z,39.70
2018-03-29T16:22:11.872Z,36.37
2018-03-29T16:24:40.063Z,37.17
2018-03-29T16:27:09.014Z,36.30
2018-03-29T16:29:37.180Z,38.30
2018-03-29T16:32:05.362Z,38.13
2018-03-29T16:34:33.562Z,38.40
2018-03-29T16:37:01.778Z,35.70
2018-03-29T16:39:29.954Z,38.40
2018-03-29T16:41:58.141Z,35.97
2018-03-29T16:44:26.335Z,36.30
2018-03-29T16:46:54.537Z,50.57
2018-03-29T16:49:22.716Z,38.40
2018-03-29T16:51:50.887Z,39.93
2018-03-29T16:54:19.071Z,37.63
2018-03-29T16:56:48.051Z,35.80
2018-03-29T16:59:16.230Z,36.70
2018-03-29T17:01:44.415Z,37.60
2018-03-29T17:04:13.350Z,38.37
2018-03-29T17:06:41.534Z,39.60
2018-03-29T17:09:09.783Z,38.40
2018-03-29T17:11:37.947Z,36.47
2018-03-29T17:14:06.889Z,35.13
2018-03-29T17:16:35.061Z,35.27
2018-03-29T17:19:03.230Z,34.50
2018-03-29T17:21:31.412Z,34.90
2018-03-29T17:23:59.599Z,35.60
2018-03-29T17:26:27.769Z,39.37
2018-03-29T17:28:55.937Z,37.27
2018-03-29T17:31:24.123Z,39.77
2018-03-29T17:33:52.314Z,36.50
2018-03-29T17:36:20.496Z,38.53
2018-03-29T17:38:49.443Z,40.27
2018-03-29T17:41:17.655Z,39.93
2018-03-29T17:43:45.828Z,38.77
2018-03-29T17:46:14.039Z,40.00
2018-03-29T17:48:42.231Z,44.90
2018-03-29T17:51:10.404Z,40.30
2018-03-29T17:53:38.581Z,40.13
2018-03-29T17:56:06.752Z,29.27
2018-03-29T17:58:34.943Z,20.60
2018-03-29T18:01:03.886Z,20.23
2018-03-29T18:03:32.822Z,20.40
2018-03-29T18:06:00.995Z,21.50
2018-03-29T18:08:29.177Z,23.20
2018-03-29T18:10:57.374Z,21.73
2018-03-29T18:13:25.559Z,23.37
2018-03-29T18:15:53.735Z,26.53
2018-03-29T18:18:21.910Z,30.20
2018-03-29T18:20:50.134Z,28.50
2018-03-29T18:23:18.312Z,35.63
2018-03-29T18:25:46.488Z,30.53
2018-03-29T18:28:14.664Z,24.73
2018-03-29T18:30:42.883Z,22.37
2018-03-29T18:33:11.052Z,22.07
2018-03-29T18:35:39.229Z,20.03
2018-03-29T18:38:07.410Z,14.80
2018-03-29T18:40:35.587Z,17.57
2018-03-29T18:43:03.757Z,17.73
2018-03-29T18:45:31.925Z,15.30
2018-03-29T18:48:00.102Z,14.83
2018-03-29T18:50:28.275Z,14.70
2018-03-29T18:52:56.442Z,14.17
2018-03-29T18:55:24.619Z,15.23
2018-03-29T18:57:52.817Z,15.60
2018-03-29T19:00:21.810Z,17.60
2018-03-29T19:02:50.740Z,20.70
2018-03-29T19:05:18.919Z,20.43
2018-03-29T19:07:47.098Z,24.70
2018-03-29T19:10:15.270Z,19.13
2018-03-29T19:12:43.445Z,19.57
2018-03-29T19:15:11.685Z,15.20
2018-03-29T19:17:40.622Z,16.87
2018-03-29T19:20:08.802Z,17.87
2018-03-29T19:22:36.981Z,13.63
2018-03-29T19:25:05.147Z,15.53
2018-03-29T19:27:33.311Z,14.60
2018-03-29T19:30:01.478Z,16.30
2018-03-29T19:32:29.647Z,14.77
2018-03-29T19:34:57.863Z,13.90
2018-03-29T19:37:26.034Z,14.20
2018-03-29T19:39:54.236Z,11.80
2018-03-29T19:42:23.181Z,10.70
2018-03-29T19:44:52.132Z,11.60
2018-03-29T19:47:21.084Z,13.33
2018-03-29T19:49:49.255Z,13.27
2018-03-29T19:52:17.433Z,12.43
2018-03-29T19:54:45.625Z,11.60
2018-03-29T19:57:13.860Z,10.90
2018-03-29T19:59:42.050Z,11.70
2018-03-29T20:02:10.220Z,13.57
2018-03-29T20:04:38.412Z,14.27
2018-03-29T20:07:06.589Z,16.50
2018-03-29T20:09:34.790Z,26.07
2018-03-29T20:12:03.772Z,26.27
2018-03-29T20:14:31.961Z,19.57
2018-03-29T20:17:00.895Z,19.63
2018-03-29T20:19:29.116Z,21.40
2018-03-29T20:21:57.345Z,18.27
2018-03-29T20:24:25.550Z,9.97
2018-03-29T20:26:53.724Z,7.90
2018-03-29T20:29:21.884Z,8.73
2018-03-29T20:31:50.050Z,6.93
2018-03-29T20:34:18.214Z,5.23
2018-03-29T20:36:46.375Z,5.53
2018-03-29T20:39:14.562Z,4.33
2018-03-29T20:41:42.753Z,9.20
2018-03-29T20:44:10.939Z,4.20
2018-03-29T20:46:39.144Z,2.83
2018-03-29T20:49:08.077Z,1.90
2018-03-29T20:51:36.279Z,1.87
2018-03-29T20:54:04.463Z,1.90
2018-03-29T20:56:32.630Z,1.50
2018-03-29T20:59:00.803Z,1.20
2018-03-29T21:01:28.960Z,1.10
2018-03-29T21:03:57.156Z,1.00
2018-03-29T22:28:23.010Z,0.80
2018-03-29T22:30:51.171Z,0.87
2018-03-29T22:33:19.355Z,0.90
2018-03-29T22:35:47.545Z,0.60
2018-03-29T22:38:15.719Z,0.80
2018-03-29T22:40:43.891Z,1.13
2018-03-29T22:43:12.062Z,1.00
2018-03-29T22:45:40.264Z,0.80
2018-03-29T22:48:08.501Z,0.77
2018-03-29T22:50:36.668Z,1.10
2018-03-29T22:53:04.842Z,0.80
2018-03-29T22:55:33.002Z,0.90
2018-03-29T22:58:01.932Z,1.70
2018-03-29T23:00:34.875Z,4.97
2018-03-29T23:03:03.811Z,2.57
2018-03-29T23:05:31.980Z,2.07
2018-03-29T23:08:00.164Z,4.27
2018-03-29T23:10:28.331Z,1.13
2018-03-29T23:12:56.497Z,1.50
2018-03-29T23:15:24.701Z,2.97
2018-03-29T23:17:52.882Z,1.97
2018-03-29T23:20:21.089Z,2.50
2018-03-29T23:22:50.033Z,5.53
2018-03-29T23:25:18.196Z,3.13
2018-03-29T23:27:46.376Z,1.60
2018-03-29T23:30:14.542Z,1.00
2018-03-29T23:32:45.846Z,1.00
2018-03-29T23:35:14.152Z,0.90
2018-03-29T23:37:42.330Z,0.90
2018-03-29T23:40:10.497Z,0.97
2018-03-29T23:42:39.428Z,1.13
2018-03-29T23:45:07.591Z,1.50
2018-03-29T23:47:35.785Z,1.30
2018-03-29T23:50:03.963Z,1.00
2018-03-29T23:52:32.130Z,1.47
2018-03-29T23:55:00.306Z,1.63
2018-03-29T23:57:28.511Z,1.53
2018-03-29T23:59:56.679Z,1.87
